Time;durP1;ratioP1;P1;durP2;ratioP2;P2;SDS_P1;SDS_P2;PMS_P1;PMS_P2;Temp;Humidity;BMP_temperature;BMP_pressure;BME280_temperature;BME280_humidity;BME280_pressure;Samples;Min_cycle;Max_cycle;Signal;HPM_P1;HPM_P2
2023/02/23 00:01:57;;;;;;;50.10;25.05;;;;;;;1.06;67.52;98532.84;4974830;28;20038;-82
2023/02/23 00:04:23;;;;;;;55.85;25.02;;;;;;;1.06;67.70;98540.94;4972578;28;20106;-82
2023/02/23 00:06:52;;;;;;;51.33;24.52;;;;;;;1.07;67.76;98539.88;4974257;28;20049;-81
2023/02/23 00:09:23;;;;;;;52.20;25.25;;;;;;;1.09;68.28;98540.47;4974317;28;20365;-82
2023/02/23 00:11:58;;;;;;;48.28;25.75;;;;;;;1.09;68.04;98537.78;4974772;28;20031;-83
2023/02/23 00:14:26;;;;;;;52.70;25.83;;;;;;;1.12;67.69;98539.22;4974530;28;20037;-82
2023/02/23 00:16:52;;;;;;;48.33;22.83;;;;;;;1.11;68.36;98543.78;4974224;28;20034;-81
2023/02/23 00:19:18;;;;;;;43.90;21.48;;;;;;;1.12;67.98;98533.81;4970775;28;20035;-80
2023/02/23 00:21:44;;;;;;;43.40;20.23;;;;;;;1.14;68.29;98537.91;4973845;28;20081;-82
2023/02/23 00:24:15;;;;;;;46.58;22.75;;;;;;;1.14;67.97;98534.41;4973586;28;20094;-80
2023/02/23 00:26:41;;;;;;;44.72;21.08;;;;;;;1.15;68.77;98536.84;4973905;28;20069;-81
2023/02/23 00:29:19;;;;;;;42.50;21.10;;;;;;;1.13;68.31;98533.56;4973702;28;20475;-81
2023/02/23 00:31:46;;;;;;;43.20;21.25;;;;;;;1.14;68.52;98537.91;4973439;28;20287;-86
2023/02/23 00:34:14;;;;;;;40.47;20.30;;;;;;;1.14;69.10;98543.31;4973054;28;20042;-83
2023/02/23 00:36:39;;;;;;;39.38;19.30;;;;;;;1.14;68.65;98537.91;4972512;28;20045;-82
2023/02/23 00:39:22;;;;;;;41.05;19.42;;;;;;;1.13;68.89;98532.75;4972410;28;20535;-83
2023/02/23 00:41:49;;;;;;;42.00;19.98;;;;;;;1.10;68.55;98533.22;4972035;28;20479;-83
2023/02/23 00:44:14;;;;;;;40.70;19.10;;;;;;;1.08;68.72;98529.94;4971837;28;20038;-82
2023/02/23 00:46:42;;;;;;;37.63;18.60;;;;;;;1.08;68.49;98536.13;4972659;28;20027;-84
2023/02/23 00:49:09;;;;;;;39.65;18.35;;;;;;;1.07;69.00;98526.38;4971754;28;20035;-82
2023/02/23 00:51:36;;;;;;;38.90;17.65;;;;;;;1.08;69.28;98535.31;4972346;28;20035;-81
2023/02/23 00:54:02;;;;;;;34.15;16.85;;;;;;;1.07;69.12;98542.59;4972088;28;20487;-80
2023/02/23 00:56:27;;;;;;;35.45;17.67;;;;;;;1.07;68.88;98541.78;4972200;28;20081;-85
2023/02/23 00:58:53;;;;;;;33.55;17.67;;;;;;;1.07;68.97;98536.38;4969817;28;20035;-88
2023/02/23 01:01:20;;;;;;;33.38;16.52;;;;;;;1.04;69.26;98533.09;4972591;28;20033;-85
2023/02/23 01:03:46;;;;;;;41.70;20.35;;;;;;;1.04;68.96;98538.50;4970910;28;20109;-89
2023/02/23 01:06:15;;;;;;;35.55;16.90;;;;;;;1.03;68.91;98538.69;4972402;28;20121;-89
2023/02/23 01:08:43;;;;;;;37.90;18.37;;;;;;;1.02;69.02;98542.47;4972705;28;20082;-88
2023/02/23 01:11:14;;;;;;;29.90;16.63;;;;;;;1.00;69.33;98533.78;4971205;28;20027;-90
2023/02/23 01:13:42;;;;;;;30.50;15.85;;;;;;;0.99;68.90;98535.66;4972260;28;20106;-90
2023/02/23 01:16:13;;;;;;;27.80;15.40;;;;;;;0.97;68.97;98535.06;4972952;28;20034;-84
2023/02/23 01:18:40;;;;;;;26.75;13.57;;;;;;;0.95;69.08;98529.06;4972181;28;20027;-86
2023/02/23 01:21:14;;;;;;;28.02;15.18;;;;;;;0.92;69.28;98515.22;4971931;28;20089;-85
2023/02/23 01:23:40;;;;;;;29.42;13.35;;;;;;;0.88;69.45;98529.19;4969526;28;20023;-87
2023/02/23 01:26:14;;;;;;;29.15;15.38;;;;;;;0.85;69.29;98518.84;4972128;28;20066;-86
2023/02/23 01:28:39;;;;;;;27.50;14.93;;;;;;;0.83;69.12;98515.53;4969424;28;20110;-87
2023/02/23 01:31:08;;;;;;;24.88;13.18;;;;;;;0.80;69.52;98517.91;4972045;28;20102;-86
2023/02/23 01:33:33;;;;;;;24.23;12.77;;;;;;;0.77;69.11;98519.16;4969339;28;20045;-86
2023/02/23 01:35:59;;;;;;;22.10;13.18;;;;;;;0.77;69.49;98512.97;4972111;28;20559;-85
2023/02/23 01:38:25;;;;;;;23.80;12.68;;;;;;;0.74;69.60;98517.75;4971160;28;20026;-86
2023/02/23 01:40:50;;;;;;;24.17;12.85;;;;;;;0.72;69.54;98510.94;4971916;28;21264;-86
2023/02/23 01:43:24;;;;;;;25.88;12.40;;;;;;;0.73;69.35;98509.88;4971787;28;20035;-86
2023/02/23 01:45:53;;;;;;;20.30;12.20;;;;;;;0.74;69.91;98506.13;4986063;28;20023;-86
2023/02/23 01:48:26;;;;;;;20.00;11.63;;;;;;;0.74;69.46;98509.66;4972019;28;20027;-86
2023/02/23 01:51:12;;;;;;;22.25;11.55;;;;;;;0.72;69.30;98506.38;4972143;28;20407;-86
2023/02/23 01:53:47;;;;;;;24.13;11.75;;;;;;;0.72;70.09;98498.28;4970277;28;20027;-86
2023/02/23 01:56:22;;;;;;;23.17;12.68;;;;;;;0.72;69.56;98497.44;4971638;28;20057;-86
2023/02/23 01:58:51;;;;;;;20.10;11.50;;;;;;;0.70;69.55;98494.97;4971832;28;20038;-86
2023/02/23 02:01:17;;;;;;;20.52;11.65;;;;;;;0.67;69.44;98497.28;4971909;28;20030;-86
2023/02/23 02:03:47;;;;;;;23.38;12.50;;;;;;;0.65;69.59;98497.53;4971784;28;20442;-86
2023/02/23 02:06:14;;;;;;;;;;;;;;;0.67;69.43;98489.19;4972005;28;20538;-86
2023/02/23 02:08:45;;;;;;;21.27;10.93;;;;;;;0.66;69.62;98492.94;4971926;28;20288;-86
2023/02/23 02:11:29;;;;;;;21.48;12.05;;;;;;;0.65;69.33;98484.03;4971808;28;20027;-85
2023/02/23 02:14:02;;;;;;;26.00;12.82;;;;;;;0.66;69.74;98484.84;4970376;28;20045;-86
2023/02/23 02:16:48;;;;;;;21.90;11.15;;;;;;;0.64;69.97;98478.84;4971329;28;20395;-85
2023/02/23 02:19:48;;;;;;;20.30;11.60;;;;;;;0.63;70.22;98488.00;4970472;28;20043;-85
2023/02/23 02:22:16;;;;;;;21.13;11.38;;;;;;;0.62;69.45;98475.56;4971667;28;20030;-86
2023/02/23 02:25:12;;;;;;;22.58;11.75;;;;;;;0.60;69.57;98475.81;4971309;28;20041;-85
2023/02/23 02:27:42;;;;;;;19.27;11.13;;;;;;;0.59;69.65;98484.97;4971325;28;20066;-86
2023/02/23 02:30:13;;;;;;;;;;;;;;;0.63;69.61;98477.22;4971755;28;20479;-85
2023/02/23 02:32:57;;;;;;;21.98;11.10;;;;;;;0.62;70.23;98486.38;4971417;28;20379;-87
2023/02/23 02:35:25;;;;;;;24.80;12.75;;;;;;;0.63;69.88;98480.75;4969706;28;20717;-86
2023/02/23 02:38:15;;;;;;;21.95;10.95;;;;;;;0.57;69.81;98479.81;4971036;28;20039;-86
2023/02/23 02:41:02;;;;;;;19.48;11.13;;;;;;;0.57;69.61;98478.97;4971389;28;20034;-86
2023/02/23 02:43:34;;;;;;;20.73;11.27;;;;;;;0.59;69.89;98482.25;4971236;28;20481;-86
2023/02/23 02:45:59;;;;;;;19.38;11.48;;;;;;;0.58;69.68;98473.38;4970729;28;20387;-85
2023/02/23 02:48:34;;;;;;;24.63;12.80;;;;;;;0.57;70.01;98482.50;4971757;28;20037;-86
2023/02/23 02:51:04;;;;;;;21.02;11.68;;;;;;;0.57;70.37;98474.41;4969990;28;20035;-86
2023/02/23 02:53:44;;;;;;;20.77;12.00;;;;;;;0.54;70.11;98480.28;4970985;28;20019;-86
2023/02/23 02:56:10;;;;;;;;;;;;;;;0.51;69.53;98477.19;4973030;28;20106;-86
2023/02/23 02:58:37;;;;;;;20.08;11.85;;;;;;;0.49;69.69;98476.59;4975158;28;20271;-86
2023/02/23 04:19:20;;;;;;;25.95;14.18;;;;;;;-0.01;70.25;98463.16;4973810;28;20053;-87
2023/02/23 04:21:46;;;;;;;26.95;14.10;;;;;;;-0.02;70.57;98463.41;4973573;28;20027;-86
2023/02/23 04:24:11;;;;;;;26.58;15.25;;;;;;;-0.03;70.63;98459.88;4973776;28;20033;-86
2023/02/23 04:26:37;;;;;;;23.25;13.70;;;;;;;-0.03;71.04;98457.16;4973061;28;20110;-86
2023/02/23 04:29:02;;;;;;;25.98;13.93;;;;;;;-0.01;70.91;98465.03;4972222;28;20199;-86
2023/02/23 04:31:28;;;;;;;26.02;14.02;;;;;;;-0.02;71.18;98458.81;4973300;28;20031;-86
2023/02/23 04:33:53;;;;;;;28.25;14.60;;;;;;;-0.06;70.99;98457.63;4973072;28;20041;-86
2023/02/23 04:36:18;;;;;;;26.10;14.65;;;;;;;-0.06;71.15;98460.31;4973490;28;20034;-86
2023/02/23 04:38:44;;;;;;;27.25;13.55;;;;;;;-0.05;70.46;98455.75;4973261;28;20460;-86
2023/02/23 04:41:09;;;;;;;27.15;14.38;;;;;;;-0.04;71.10;98460.09;4973393;28;20040;-86
2023/02/23 04:43:34;;;;;;;27.27;13.27;;;;;;;-0.02;70.53;98453.41;4972755;28;20033;-86
2023/02/23 04:46:00;;;;;;;26.85;14.15;;;;;;;-0.01;71.27;98457.75;4973265;28;20030;-85
2023/02/23 04:48:26;;;;;;;28.02;14.85;;;;;;;-0.01;70.57;98451.56;4972859;28;20039;-85
2023/02/23 04:50:54;;;;;;;27.88;14.68;;;;;;;0.02;71.20;98458.38;4972018;28;20146;-85
2023/02/23 04:53:19;;;;;;;27.48;14.38;;;;;;;0.01;71.08;98454.03;4972740;28;20031;-86
2023/02/23 04:55:44;;;;;;;27.52;15.27;;;;;;;0.01;71.04;98459.41;4973026;28;20031;-85
2023/02/23 04:58:12;;;;;;;26.77;14.82;;;;;;;0.02;71.17;98453.78;4972688;28;20145;-86
2023/02/23 05:00:38;;;;;;;26.67;14.68;;;;;;;0.05;70.93;98455.22;4972869;28;20130;-86
2023/02/23 05:03:04;;;;;;;26.10;14.15;;;;;;;0.07;71.01;98462.00;4972632;28;20097;-86
2023/02/23 05:05:30;;;;;;;27.95;14.88;;;;;;;0.07;71.02;98458.50;4971694;28;20035;-85
2023/02/23 05:07:55;;;;;;;29.67;15.73;;;;;;;0.02;70.62;98452.97;4972357;28;20098;-86
2023/02/23 05:10:21;;;;;;;31.13;15.55;;;;;;;0.05;71.28;98455.22;4972880;28;20031;-85
2023/02/23 05:12:46;;;;;;;32.53;15.80;;;;;;;0.05;70.92;98444.44;4973154;28;20051;-85
2023/02/23 05:15:12;;;;;;;28.85;15.65;;;;;;;0.03;70.57;98449.22;4972459;28;20043;-86
2023/02/23 05:17:42;;;;;;;32.65;17.05;;;;;;;0.03;71.00;98452.72;4972439;28;20085;-86
2023/02/23 05:20:10;;;;;;;29.50;16.60;;;;;;;0.02;70.53;98458.38;4972681;28;20110;-87
2023/02/23 05:22:35;;;;;;;27.90;16.25;;;;;;;0.03;70.87;98458.13;4971174;28;20046;-87
2023/02/23 05:25:03;;;;;;;29.48;18.00;;;;;;;0.05;71.02;98453.31;4972242;28;20626;-84
2023/02/23 05:27:28;;;;;;;29.15;15.88;;;;;;;0.05;71.03;98458.72;4972243;28;20045;-84
2023/02/23 05:29:54;;;;;;;29.88;15.68;;;;;;;0.04;70.65;98451.69;4972579;28;20460;-85
2023/02/23 05:32:19;;;;;;;30.35;15.85;;;;;;;0.04;71.05;98461.66;4972671;28;20476;-84
2023/02/23 05:34:44;;;;;;;27.38;14.85;;;;;;;0.01;70.75;98456.72;4972376;28;20030;-85
2023/02/23 05:37:10;;;;;;;27.15;13.90;;;;;;;0.03;70.66;98460.00;4971753;28;20030;-85
2023/02/23 05:39:35;;;;;;;29.15;15.13;;;;;;;0.01;70.59;98456.72;4971927;28;20515;-85
2023/02/23 05:42:00;;;;;;;24.45;14.25;;;;;;;0.02;71.05;98458.38;4970968;28;20031;-84
2023/02/23 05:44:26;;;;;;;26.73;15.07;;;;;;;0.02;70.92;98467.25;4971879;28;20796;-85
2023/02/23 05:46:52;;;;;;;27.80;14.70;;;;;;;0.04;71.06;98469.75;4972390;28;20027;-85
2023/02/23 05:49:17;;;;;;;28.40;14.43;;;;;;;0.04;71.30;98459.75;4972202;28;20078;-85
2023/02/23 05:51:43;;;;;;;28.73;16.10;;;;;;;0.04;70.76;98461.66;4972154;28;20061;-85
2023/02/23 05:54:09;;;;;;;32.47;17.08;;;;;;;0.05;71.05;98460.59;4971701;28;20077;-85
2023/02/23 05:56:34;;;;;;;30.70;16.45;;;;;;;0.06;71.08;98463.06;4971919;28;20043;-85
2023/02/23 05:59:03;;;;;;;35.03;17.08;;;;;;;0.08;71.42;98463.66;4967932;28;20547;-84
2023/02/23 06:01:29;;;;;;;38.25;19.38;;;;;;;0.11;71.11;98471.28;4971138;28;20038;-84
2023/02/23 06:03:54;;;;;;;42.88;19.75;;;;;;;0.12;70.93;98472.13;4980491;28;20462;-84
2023/02/23 06:06:24;;;;;;;39.42;20.73;;;;;;;0.15;70.91;98474.38;4971584;28;20111;-85
2023/02/23 06:08:50;;;;;;;39.75;22.67;;;;;;;0.18;71.09;98476.63;4971872;28;20025;-84
2023/02/23 06:11:15;;;;;;;38.25;21.73;;;;;;;0.19;70.47;98472.88;4971414;28;20061;-84
2023/02/23 06:13:41;;;;;;;41.30;21.65;;;;;;;0.20;71.18;98471.00;4971650;28;20042;-85
2023/02/23 06:16:07;;;;;;;42.63;22.77;;;;;;;0.19;70.71;98472.03;4971438;28;20460;-85
2023/02/23 06:18:35;;;;;;;42.05;22.35;;;;;;;0.20;71.29;98474.53;4971784;28;20507;-85
2023/02/23 06:21:02;;;;;;;52.92;29.00;;;;;;;0.21;70.92;98468.03;4970423;28;20374;-85
2023/02/23 06:23:28;;;;;;;73.30;39.08;;;;;;;0.21;71.17;98476.13;4971413;28;20027;-85
2023/02/23 06:25:54;;;;;;;43.33;26.08;;;;;;;0.20;71.16;98469.13;4971405;28;20035;-85
2023/02/23 06:28:19;;;;;;;48.92;27.17;;;;;;;0.22;71.05;98472.38;4971566;28;20472;-85
2023/02/23 06:30:45;;;;;;;94.30;45.20;;;;;;;0.23;71.20;98475.94;4970829;28;20038;-85
2023/02/23 06:33:11;;;;;;;143.32;66.40;;;;;;;0.22;70.70;98475.09;4971467;28;20038;-85
2023/02/23 06:35:37;;;;;;;111.57;57.10;;;;;;;0.25;71.20;98485.44;4971495;28;20632;-84
2023/02/23 06:38:04;;;;;;;65.65;33.97;;;;;;;0.32;71.33;98481.81;4971248;28;20460;-85
2023/02/23 06:40:30;;;;;;;51.78;26.38;;;;;;;0.36;71.52;98480.31;4971232;28;20488;-85
2023/02/23 06:42:55;;;;;;;49.08;25.63;;;;;;;0.40;71.33;98487.75;4971189;28;20142;-84
2023/02/23 06:45:20;;;;;;;59.80;32.63;;;;;;;0.44;71.14;98478.09;4971254;28;20049;-84
2023/02/23 06:47:46;;;;;;;52.45;28.80;;;;;;;0.50;71.16;98483.63;4971273;28;20486;-84
2023/02/23 06:50:12;;;;;;;49.75;27.52;;;;;;;0.55;70.94;98484.63;4971430;28;20039;-84
2023/02/23 06:52:38;;;;;;;52.33;26.52;;;;;;;0.62;70.91;98478.28;4970198;28;20100;-84
2023/02/23 06:55:04;;;;;;;54.75;28.70;;;;;;;0.69;71.83;98487.94;4971107;28;20038;-84
2023/02/23 06:57:30;;;;;;;37.28;20.30;;;;;;;0.76;71.27;98487.00;4971221;28;20452;-85
2023/02/23 06:59:55;;;;;;;42.22;22.70;;;;;;;0.81;70.99;98487.94;4969679;28;20084;-85
2023/02/23 07:02:21;;;;;;;44.50;25.35;;;;;;;0.88;71.41;98479.72;4971103;28;20153;-85
2023/02/23 07:04:46;;;;;;;43.65;23.80;;;;;;;0.94;70.95;98483.41;4970615;28;20468;-85
2023/02/23 07:07:12;;;;;;;42.70;23.90;;;;;;;1.00;71.84;98482.47;4971121;28;20058;-85
2023/02/23 07:09:41;;;;;;;39.38;24.05;;;;;;;1.03;71.25;98481.97;4972100;28;20389;-85
2023/02/23 07:12:08;;;;;;;48.95;24.88;;;;;;;1.09;70.88;98488.34;4970820;28;20026;-85
2023/02/23 07:14:33;;;;;;;43.78;23.58;;;;;;;1.15;71.54;98488.22;4970549;28;20026;-86
2023/02/23 07:16:59;;;;;;;43.17;22.85;;;;;;;1.23;71.10;98480.84;4971378;28;20481;-85
2023/02/23 07:19:24;;;;;;;45.80;25.10;;;;;;;1.32;70.91;98484.84;4972005;28;20031;-85
2023/02/23 07:21:50;;;;;;;68.22;31.17;;;;;;;1.40;71.15;98481.78;4971870;28;20042;-85
2023/02/23 07:24:15;;;;;;;72.97;29.38;;;;;;;1.45;71.47;98481.88;4971835;28;20121;-85
2023/02/23 07:26:45;;;;;;;59.35;26.40;;;;;;;1.53;71.68;98482.59;4971962;28;20031;-85
2023/02/23 07:29:11;;;;;;;;;;;;;;;1.59;70.99;98484.34;4972887;28;20139;-85
2023/02/23 07:31:36;;;;;;;47.97;24.20;;;;;;;1.64;70.87;98470.94;4971770;28;19953;-85
2023/02/23 07:34:02;;;;;;;41.88;22.75;;;;;;;1.67;71.34;98473.16;4971882;28;20031;-85
2023/02/23 07:36:27;;;;;;;42.65;22.73;;;;;;;1.69;70.95;98473.75;4972152;28;20167;-85
2023/02/23 07:38:53;;;;;;;38.15;20.77;;;;;;;1.75;71.09;98472.81;4972243;28;20395;-85
2023/02/23 07:41:18;;;;;;;44.38;21.55;;;;;;;1.84;71.69;98477.81;4971833;28;20113;-85
2023/02/23 07:43:44;;;;;;;37.20;20.95;;;;;;;1.91;70.93;98467.69;4973809;28;20035;-85
2023/02/23 07:46:09;;;;;;;40.95;21.60;;;;;;;1.96;71.45;98467.00;4975378;28;20030;-84
2023/02/23 07:48:35;;;;;;;38.35;21.45;;;;;;;2.02;70.97;98468.75;4975771;28;20031;-84
2023/02/23 07:51:00;;;;;;;39.28;21.30;;;;;;;2.07;71.22;98469.66;4975589;28;20368;-85
2023/02/23 07:53:26;;;;;;;41.70;23.70;;;;;;;2.15;71.42;98471.16;4975252;28;20475;-85
2023/02/23 07:55:59;;;;;;;44.40;22.55;;;;;;;2.17;70.82;98465.53;4974186;28;20045;-85
2023/02/23 07:58:25;;;;;;;48.80;26.13;;;;;;;2.23;70.54;98467.25;4974788;28;20066;-85
2023/02/23 08:00:50;;;;;;;58.72;28.77;;;;;;;2.30;70.42;98465.22;4975175;28;20069;-84
2023/02/23 08:03:16;;;;;;;58.42;27.17;;;;;;;2.37;71.03;98463.19;4974656;28;20038;-84
2023/02/23 08:05:43;;;;;;;50.00;26.50;;;;;;;2.45;71.02;98458.44;4974709;28;20077;-84
2023/02/23 08:08:09;;;;;;;42.10;23.00;;;;;;;2.52;70.52;98457.22;4974869;28;20039;-86
2023/02/23 08:10:35;;;;;;;51.55;26.13;;;;;;;2.60;70.68;98449.78;4975431;28;20476;-85
2023/02/23 08:13:01;;;;;;;46.90;25.02;;;;;;;2.68;70.89;98452.09;4978445;28;20031;-85
2023/02/23 08:15:26;;;;;;;55.15;28.58;;;;;;;2.76;70.57;98457.09;4976253;28;20035;-84
2023/02/23 08:17:52;;;;;;;55.80;26.48;;;;;;;2.83;70.87;98455.06;4971788;28;20037;-85
2023/02/23 08:20:17;;;;;;;45.58;25.27;;;;;;;2.91;70.78;98450.28;4973876;28;20035;-84
2023/02/23 08:22:43;;;;;;;50.58;25.95;;;;;;;2.98;71.23;98449.06;4973996;28;20053;-84
2023/02/23 08:25:09;;;;;;;43.42;24.23;;;;;;;3.06;71.15;98455.13;4972546;28;20108;-84
2023/02/23 08:27:36;;;;;;;59.58;31.75;;;;;;;3.13;70.58;98458.47;4974138;28;20049;-84
2023/02/23 08:30:04;;;;;;;57.05;32.35;;;;;;;3.17;70.33;98448.78;4974116;28;20031;-82
2023/02/23 08:32:33;;;;;;;73.03;40.10;;;;;;;3.25;70.33;98458.41;4973457;28;20031;-85
2023/02/23 08:35:01;;;;;;;122.50;47.30;;;;;;;3.36;71.12;98457.47;4973743;28;20031;-78
2023/02/23 08:37:28;;;;;;;122.97;46.30;;;;;;;3.47;70.47;98460.34;4973572;28;20030;-85
2023/02/23 08:39:53;;;;;;;109.60;41.92;;;;;;;3.55;70.56;98458.00;4974212;28;20058;-84
2023/02/23 08:42:18;;;;;;;90.53;42.78;;;;;;;3.67;70.31;98457.91;4974386;28;20062;-83
2023/02/23 08:44:45;;;;;;;65.07;32.97;;;;;;;3.78;71.03;98458.03;4973839;28;20031;-82
2023/02/23 08:47:10;;;;;;;64.63;29.60;;;;;;;3.86;70.51;98461.16;4973746;28;20347;-80
2023/02/23 08:49:35;;;;;;;50.63;27.13;;;;;;;3.97;70.51;98458.53;4974115;28;20023;-85
2023/02/23 08:52:01;;;;;;;53.72;28.02;;;;;;;4.04;70.38;98459.19;4971042;28;20027;-83
2023/02/23 08:54:27;;;;;;;54.40;27.20;;;;;;;4.13;70.79;98460.38;4973307;28;20101;-84
2023/02/23 08:56:55;;;;;;;53.38;26.17;;;;;;;4.25;70.22;98456.72;4973428;28;20455;-83
2023/02/23 08:59:20;;;;;;;43.88;23.35;;;;;;;4.34;70.23;98454.34;4973578;28;20023;-83
2023/02/23 09:01:46;;;;;;;44.17;22.48;;;;;;;4.40;70.43;98453.34;4972650;28;20041;-83
2023/02/23 09:04:11;;;;;;;42.50;22.23;;;;;;;4.49;69.90;98457.19;4969718;28;20038;-84
2023/02/23 09:06:37;;;;;;;38.92;21.60;;;;;;;4.60;70.44;98456.22;4982350;28;20787;-78
2023/02/23 09:09:02;;;;;;;38.53;21.23;;;;;;;4.70;69.83;98451.97;4970080;28;20051;-79
2023/02/23 09:11:28;;;;;;;35.90;20.13;;;;;;;4.81;70.00;98458.31;4969602;28;20054;-82
2023/02/23 09:13:54;;;;;;;35.63;20.70;;;;;;;4.89;70.17;98450.50;4969181;28;20078;-80
2023/02/23 09:16:19;;;;;;;38.38;21.33;;;;;;;4.99;69.71;98457.09;4971518;28;20034;-81
2023/02/23 09:18:45;;;;;;;36.90;20.58;;;;;;;5.10;69.26;98447.97;4971252;28;20029;-83
2023/02/23 09:21:21;;;;;;;37.78;20.23;;;;;;;5.18;69.88;98452.09;4970025;28;20479;-80
2023/02/23 09:23:48;;;;;;;34.92;20.77;;;;;;;5.28;69.63;98459.53;4969762;28;20085;-79
2023/02/23 09:26:16;;;;;;;33.83;19.52;;;;;;;5.38;69.33;98454.13;4970176;28;20062;-80
2023/02/23 09:28:42;;;;;;;37.97;21.08;;;;;;;5.43;68.95;98451.44;4968966;28;20585;-85
2023/02/23 09:31:09;;;;;;;37.15;21.27;;;;;;;5.52;68.98;98459.91;4968589;28;20056;-83
2023/02/23 09:33:35;;;;;;;44.22;21.73;;;;;;;5.61;69.18;98452.09;4969917;28;20030;-85
2023/02/23 09:36:15;;;;;;;36.28;22.00;;;;;;;5.71;68.87;98451.31;4969853;28;20036;-79
2023/02/23 09:38:41;;;;;;;44.33;24.35;;;;;;;5.84;69.15;98452.75;4967697;28;20044;-78
2023/02/23 09:41:27;;;;;;;39.65;22.15;;;;;;;5.92;68.79;98444.88;4968389;28;20475;-79
2023/02/23 09:43:55;;;;;;;37.83;22.20;;;;;;;6.00;68.06;98449.03;4968821;28;20029;-78
2023/02/23 09:46:52;;;;;;;38.75;21.42;;;;;;;6.03;68.52;98443.06;4967075;28;20035;-81
2023/02/23 09:49:21;;;;;;;38.65;20.13;;;;;;;6.09;68.53;98446.63;4966753;28;20030;-81
2023/02/23 09:51:56;;;;;;;37.17;19.92;;;;;;;6.15;68.41;98448.28;4967163;28;20034;-84
2023/02/23 09:54:23;;;;;;;37.63;20.92;;;;;;;6.23;67.81;98450.50;4969034;28;20022;-84
2023/02/23 09:56:50;;;;;;;34.38;19.77;;;;;;;6.28;67.75;98449.66;4968265;28;20554;-84
2023/02/23 09:59:18;;;;;;;39.20;21.55;;;;;;;6.34;67.57;98447.78;4967769;28;20042;-84
2023/02/23 10:01:46;;;;;;;37.67;20.05;;;;;;;6.38;67.68;98443.41;4968936;28;20065;-84
2023/02/23 10:04:18;;;;;;;37.20;20.45;;;;;;;6.41;67.60;98442.88;4970324;28;20035;-84
2023/02/23 10:06:53;;;;;;;38.67;20.48;;;;;;;6.48;67.44;98448.09;4968751;28;20033;-85
2023/02/23 10:09:48;;;;;;;39.05;19.63;;;;;;;6.55;68.11;98443.19;4967227;28;20022;-86
2023/02/23 10:12:38;;;;;;;31.65;18.02;;;;;;;6.64;67.65;98444.28;4967556;28;20078;-84
2023/02/23 10:15:21;;;;;;;35.47;18.80;;;;;;;6.69;67.41;98440.78;4970255;28;20499;-81
2023/02/23 10:18:08;;;;;;;36.00;19.77;;;;;;;6.74;67.14;98431.78;4969563;28;20030;-79
2023/02/23 10:20:49;;;;;;;30.63;17.55;;;;;;;6.80;66.62;98436.94;4967084;28;20046;-85
2023/02/23 10:23:21;;;;;;;32.95;18.42;;;;;;;6.86;66.91;98440.50;4968861;28;20042;-84
2023/02/23 10:25:49;;;;;;;54.22;28.67;;;;;;;6.93;66.99;98432.03;4970211;28;20097;-81
2023/02/23 10:28:19;;;;;;;116.70;39.00;;;;;;;7.02;66.95;98429.59;4969488;28;20027;-83
2023/02/23 10:30:44;;;;;;;119.22;37.55;;;;;;;7.09;66.88;98430.97;4969551;28;20035;-84
2023/02/23 10:33:19;;;;;;;96.82;33.28;;;;;;;7.16;66.86;98433.41;4969367;28;20027;-87
2023/02/23 10:35:46;;;;;;;62.45;28.85;;;;;;;7.23;66.49;98428.50;4970248;28;20120;-89
2023/02/23 10:38:17;;;;;;;149.50;45.40;;;;;;;7.32;67.14;98430.66;4968555;28;20034;-85
2023/02/23 10:40:48;;;;;;;147.05;49.03;;;;;;;7.43;66.73;98415.88;4968661;28;20030;-87
2023/02/23 10:43:14;;;;;;;96.38;37.50;;;;;;;7.53;66.16;98426.78;4968449;28;20035;-92
2023/02/23 10:45:48;;;;;;;82.78;34.30;;;;;;;7.58;66.49;98415.03;4971335;28;20583;-95
2023/02/23 10:48:20;;;;;;;91.63;43.00;;;;;;;7.66;66.52;98408.19;4969414;28;20033;-88
2023/02/23 10:50:48;;;;;;;52.88;27.95;;;;;;;7.73;65.93;98406.78;4968325;28;20019;-85
2023/02/23 10:53:26;;;;;;;57.30;28.83;;;;;;;7.79;66.52;98398.59;4967773;28;20042;-83
2023/02/23 10:56:02;;;;;;;53.20;28.17;;;;;;;7.87;66.06;98401.53;4968767;28;20047;-87
2023/02/23 10:58:28;;;;;;;62.13;28.23;;;;;;;7.95;65.77;98400.13;4969548;28;20113;-88
2023/02/23 11:01:00;;;;;;;60.63;28.17;;;;;;;8.03;66.21;98388.63;4968600;28;20428;-84
2023/02/23 11:03:33;;;;;;;59.17;28.55;;;;;;;8.12;65.91;98388.88;4969241;28;20052;-85
2023/02/23 11:05:58;;;;;;;46.13;24.15;;;;;;;8.20;66.00;98388.25;4971060;28;20027;-85
2023/02/23 11:08:34;;;;;;;52.95;26.17;;;;;;;8.29;65.50;98391.22;4970707;28;20372;-87
2023/02/23 11:11:01;;;;;;;69.03;32.05;;;;;;;8.38;65.67;98385.16;4970761;28;20098;-82
2023/02/23 11:13:38;;;;;;;44.83;23.85;;;;;;;8.46;64.98;98377.19;4970495;28;20063;-83
2023/02/23 11:16:04;;;;;;;47.72;24.98;;;;;;;8.54;65.52;98383.97;4967983;28;20330;-81
2023/02/23 11:18:30;;;;;;;72.70;33.60;;;;;;;8.63;64.97;98378.72;4974339;28;20479;-83
2023/02/23 11:20:56;;;;;;;40.67;22.48;;;;;;;8.67;64.99;98373.50;4975106;28;20527;-83
2023/02/23 11:23:32;;;;;;;39.53;22.38;;;;;;;8.73;65.27;98370.44;4968430;28;20480;-87
2023/02/23 11:26:01;;;;;;;43.60;23.17;;;;;;;8.81;64.71;98365.47;4969346;28;20025;-86
2023/02/23 11:28:32;;;;;;;56.95;28.83;;;;;;;8.86;64.84;98368.16;4973254;28;20558;-80
2023/02/23 11:31:08;;;;;;;50.78;27.63;;;;;;;8.90;64.91;98367.28;4973319;28;20035;-80
2023/02/23 11:33:34;;;;;;;41.25;23.27;;;;;;;8.98;65.08;98359.56;4970019;28;20118;-79
2023/02/23 11:36:17;;;;;;;48.13;26.05;;;;;;;9.06;64.86;98361.69;4970277;28;20031;-88
2023/02/23 11:38:45;;;;;;;52.30;26.67;;;;;;;9.11;64.43;98353.41;4970769;28;20093;-80
2023/02/23 11:41:23;;;;;;;44.42;25.90;;;;;;;9.16;64.33;98355.28;4971272;28;20030;-84
2023/02/23 11:43:51;;;;;;;52.78;26.08;;;;;;;9.18;63.64;98359.34;4971128;28;20034;-89
2023/02/23 11:46:20;;;;;;;46.45;22.90;;;;;;;9.18;64.20;98348.41;4971959;28;20030;-89
2023/02/23 11:49:04;;;;;;;41.47;21.83;;;;;;;9.24;64.07;98351.91;4972084;28;20045;-86
2023/02/23 11:51:32;;;;;;;44.58;23.30;;;;;;;9.32;63.75;98348.56;4972245;28;20864;-89
2023/02/23 11:53:58;;;;;;;33.15;18.75;;;;;;;9.37;63.96;98347.66;4972603;28;20058;-86
2023/02/23 11:56:26;;;;;;;33.67;18.70;;;;;;;9.43;63.61;98342.94;4972446;28;20055;-90
2023/02/23 11:58:58;;;;;;;37.65;21.85;;;;;;;9.47;63.47;98344.81;4973831;28;20027;-85
2023/02/23 12:01:45;;;;;;;33.38;18.45;;;;;;;9.53;63.69;98340.09;4972770;28;20051;-85
2023/02/23 12:04:28;;;;;;;59.35;30.92;;;;;;;9.60;63.97;98337.81;4971514;28;20237;-81
2023/02/23 12:07:18;;;;;;;47.38;25.23;;;;;;;9.68;63.76;98333.59;4973111;28;20034;-85
2023/02/23 12:09:47;;;;;;;35.45;19.67;;;;;;;9.73;63.85;98336.28;4971026;28;20105;-82
2023/02/23 12:12:17;;;;;;;35.45;21.13;;;;;;;9.73;63.53;98336.28;4973068;28;20023;-85
2023/02/23 12:14:48;;;;;;;35.22;20.60;;;;;;;9.73;63.06;98325.31;4973427;28;20035;-82
2023/02/23 12:17:24;;;;;;;36.35;20.52;;;;;;;9.73;62.63;98325.31;4972048;28;20033;-84
2023/02/23 12:20:05;;;;;;;33.25;20.90;;;;;;;9.76;62.97;98326.69;4972999;28;20054;-79
2023/02/23 12:22:47;;;;;;;28.98;17.45;;;;;;;9.80;63.48;98311.25;4971089;28;20026;-82
2023/02/23 12:25:28;;;;;;;27.27;15.43;;;;;;;9.86;62.90;98317.50;4971132;28;20027;-83
2023/02/23 12:28:04;;;;;;;26.60;15.93;;;;;;;9.91;62.69;98310.00;4971496;28;20058;-84
2023/02/23 12:31:14;;;;;;;28.85;15.70;;;;;;;10.01;62.81;98303.56;4977546;28;20030;-86
2023/02/23 12:33:45;;;;;;;33.30;19.75;;;;;;;10.16;62.79;98301.72;4948813;28;20070;-84
2023/02/23 12:36:25;;;;;;;33.55;17.45;;;;;;;10.29;62.53;98298.25;4950273;28;20121;-88
2023/02/23 12:38:59;;;;;;;32.05;19.33;;;;;;;10.43;62.10;98298.31;4959914;28;20054;-85
2023/02/23 12:41:51;;;;;;;260.48;80.40;;;;;;;10.54;62.01;98294.31;4970024;28;20407;-86
2023/02/23 12:44:37;;;;;;;53.20;23.05;;;;;;;10.66;62.28;98287.50;4967786;28;20074;-86
2023/02/23 12:47:23;;;;;;;74.35;34.03;;;;;;;10.76;62.38;98289.28;4969566;28;20045;-87
2023/02/23 12:50:06;;;;;;;135.15;45.15;;;;;;;10.86;61.85;98286.31;4968192;28;20146;-86
2023/02/23 12:52:35;;;;;;;184.60;60.63;;;;;;;10.94;62.12;98276.59;4970780;28;20031;-85
2023/02/23 12:55:01;;;;;;;44.45;19.55;;;;;;;10.99;61.68;98276.50;4969881;28;20142;-87